Time;durP1;ratioP1;P1;durP2;ratioP2;P2;SDS_P1;SDS_P2;PMS_P1;PMS_P2;Temp;Humidity;BMP_temperature;BMP_pressure;BME280_temperature;BME280_humidity;BME280_pressure;Samples;Min_cycle;Max_cycle;Signal;HPM_P1;HPM_P2
2022/09/04 00:00:09;;;;;;;3.97;2.17;;;16.70;99.90;;;;;;4978457;28;20041;-79
2022/09/04 00:03:00;;;;;;;3.58;2.15;;;16.70;99.90;;;;;;4972864;28;20027;-78
2022/09/04 00:05:43;;;;;;;2.75;1.88;;;16.60;99.90;;;;;;4980356;28;20066;-79
2022/09/04 00:08:11;;;;;;;4.00;2.40;;;16.60;99.90;;;;;;4977885;28;20027;-79
2022/09/04 00:10:59;;;;;;;3.83;1.90;;;16.60;99.90;;;;;;4974180;28;20054;-79
2022/09/04 00:13:35;;;;;;;2.83;2.20;;;16.60;99.90;;;;;;4960739;28;20023;-78
2022/09/04 00:16:06;;;;;;;3.88;1.85;;;16.60;99.90;;;;;;4992270;28;20033;-79
2022/09/04 00:18:41;;;;;;;2.75;1.85;;;16.60;99.90;;;;;;4976607;28;20026;-79
2022/09/04 00:21:31;;;;;;;3.00;1.90;;;16.60;99.90;;;;;;4974775;28;20023;-79
2022/09/04 00:24:35;;;;;;;5.25;2.10;;;16.50;99.90;;;;;;4978052;28;20035;-77
2022/09/04 00:27:18;;;;;;;3.33;2.05;;;16.50;99.90;;;;;;4974185;28;20059;-78
2022/09/04 00:29:56;;;;;;;5.05;2.63;;;16.50;99.90;;;;;;4973792;28;20026;-79
2022/09/04 00:32:53;;;;;;;5.30;2.92;;;16.50;99.90;;;;;;4978903;28;20037;-78
2022/09/04 00:35:39;;;;;;;3.63;2.30;;;16.50;99.90;;;;;;4961691;28;20051;-78
2022/09/04 00:38:14;;;;;;;5.85;2.75;;;16.50;99.90;;;;;;4976865;28;20596;-78
2022/09/04 00:41:02;;;;;;;2.95;2.10;;;16.50;99.90;;;;;;4972072;28;20035;-78
2022/09/04 00:44:03;;;;;;;4.25;2.53;;;16.40;99.90;;;;;;4989543;28;20464;-77
2022/09/04 00:46:52;;;;;;;4.60;2.25;;;16.40;99.90;;;;;;4942799;28;20035;-77
2022/09/04 00:49:35;;;;;;;3.67;2.30;;;16.40;99.90;;;;;;4977962;28;20021;-78
2022/09/04 00:52:18;;;;;;;2.92;1.85;;;16.40;99.90;;;;;;4973925;28;20030;-77
2022/09/04 00:54:55;;;;;;;3.10;2.08;;;16.40;99.90;;;;;;4972766;28;20035;-77
2022/09/04 00:57:36;;;;;;;2.83;2.10;;;16.30;99.90;;;;;;4973573;28;20077;-77
2022/09/04 01:00:15;;;;;;;2.58;1.80;;;16.30;99.90;;;;;;4980140;28;20027;-77
2022/09/04 01:03:02;;;;;;;7.30;1.70;;;16.30;99.90;;;;;;4973399;28;20057;-77
2022/09/04 01:05:47;;;;;;;6.15;1.50;;;16.30;99.90;;;;;;4977586;28;20118;-77
2022/09/04 01:08:39;;;;;;;3.95;2.10;;;16.30;99.90;;;;;;4975218;28;20027;-78
2022/09/04 01:11:26;;;;;;;2.78;1.67;;;16.30;99.90;;;;;;4993142;28;20121;-78
2022/09/04 01:13:59;;;;;;;2.83;1.70;;;16.20;99.90;;;;;;4974994;28;20027;-78
2022/09/04 01:16:41;;;;;;;4.10;1.92;;;16.20;99.90;;;;;;4975341;28;20367;-78
2022/09/04 01:19:27;;;;;;;4.25;1.92;;;16.20;99.90;;;;;;4974737;28;20487;-77
2022/09/04 01:22:04;;;;;;;3.70;1.98;;;16.10;99.90;;;;;;4960071;28;20454;-77
2022/09/04 01:25:01;;;;;;;3.85;2.38;;;16.10;99.90;;;;;;4982429;28;20039;-77
2022/09/04 01:27:47;;;;;;;5.00;1.92;;;16.10;99.90;;;;;;4979087;28;20039;-77
2022/09/04 01:30:18;;;;;;;3.65;1.95;;;16.00;99.90;;;;;;4978871;28;20034;-78
2022/09/04 01:33:17;;;;;;;3.28;1.98;;;16.00;99.90;;;;;;4970755;28;20105;-78
2022/09/04 01:36:04;;;;;;;4.07;2.00;;;16.00;99.90;;;;;;4987237;28;20035;-78
2022/09/04 01:38:52;;;;;;;3.45;2.00;;;16.00;99.90;;;;;;4990652;28;20173;-78
2022/09/04 01:41:32;;;;;;;3.33;1.80;;;16.00;99.90;;;;;;4991117;28;20483;-76
2022/09/04 01:43:58;;;;;;;3.35;1.90;;;15.90;99.90;;;;;;4973090;28;20396;-76
2022/09/04 01:46:36;;;;;;;3.60;1.90;;;15.90;99.90;;;;;;4968877;28;20019;-77
2022/09/04 01:49:26;;;;;;;1.98;1.67;;;15.90;99.90;;;;;;4987894;28;20516;-77
2022/09/04 01:52:07;;;;;;;3.58;1.77;;;15.90;99.90;;;;;;4983115;28;20027;-79
2022/09/04 01:54:41;;;;;;;3.80;1.90;;;15.90;99.90;;;;;;4977321;28;20031;-77
2022/09/04 01:57:28;;;;;;;3.25;2.17;;;15.80;99.90;;;;;;4974735;28;20025;-78
2022/09/04 02:00:18;;;;;;;3.45;2.00;;;15.80;99.90;;;;;;4977788;28;20090;-79
2022/09/04 02:02:59;;;;;;;4.20;1.98;;;15.80;99.90;;;;;;4973520;28;20027;-79
2022/09/04 02:05:43;;;;;;;2.95;1.90;;;15.80;99.90;;;;;;4967513;28;20014;-78
2022/09/04 02:08:29;;;;;;;;;;;15.80;99.90;;;;;;4989957;28;20031;-78
2022/09/04 02:11:15;;;;;;;3.20;2.13;;;15.80;99.90;;;;;;4973158;28;19917;-78
2022/09/04 02:14:09;;;;;;;2.25;1.90;;;15.80;99.90;;;;;;4990234;28;20094;-78
2022/09/04 02:16:44;;;;;;;2.42;1.52;;;15.80;99.90;;;;;;4984685;28;20484;-79
2022/09/04 02:19:36;;;;;;;2.28;1.88;;;15.70;99.90;;;;;;4975307;28;20488;-79
2022/09/04 02:22:40;;;;;;;2.17;1.60;;;15.70;99.90;;;;;;4970560;28;20035;-79
2022/09/04 02:25:06;;;;;;;2.40;1.75;;;15.70;99.90;;;;;;4986822;28;20035;-79
2022/09/04 02:27:50;;;;;;;3.08;1.90;;;15.70;99.90;;;;;;4990779;28;20369;-79
2022/09/04 02:30:18;;;;;;;3.13;1.45;;;15.70;99.90;;;;;;4975042;28;20054;-79
2022/09/04 02:33:14;;;;;;;4.65;1.65;;;15.70;99.90;;;;;;4973545;28;20094;-80
2022/09/04 02:35:53;;;;;;;2.83;1.90;;;15.70;99.90;;;;;;4972353;28;20031;-77
2022/09/04 02:38:22;;;;;;;2.15;1.70;;;15.60;99.90;;;;;;4988893;28;20471;-78
2022/09/04 02:40:54;;;;;;;2.08;1.50;;;15.60;99.90;;;;;;4977525;28;20053;-78
2022/09/04 02:43:35;;;;;;;4.50;1.73;;;15.60;99.90;;;;;;4972701;28;20026;-79
2022/09/04 02:46:13;;;;;;;5.72;1.58;;;15.60;99.90;;;;;;4975980;28;20088;-78
2022/09/04 02:48:56;;;;;;;4.93;1.55;;;15.60;99.90;;;;;;4971390;28;20046;-79
2022/09/04 02:51:52;;;;;;;2.08;1.50;;;15.60;99.90;;;;;;4963728;28;20046;-78
2022/09/04 02:54:58;;;;;;;4.30;2.13;;;15.60;99.90;;;;;;4973406;28;20030;-79
2022/09/04 02:57:32;;;;;;;5.22;1.83;;;15.50;99.90;;;;;;4973762;28;20147;-79
2022/09/04 02:59:57;;;;;;;2.03;1.80;;;15.50;99.90;;;;;;4975220;28;20046;-79
2022/09/04 03:02:29;;;;;;;5.20;2.10;;;15.50;99.90;;;;;;4980980;28;20019;-79
2022/09/04 03:05:19;;;;;;;2.45;1.60;;;15.50;99.90;;;;;;4978834;28;20623;-79
2022/09/04 03:08:11;;;;;;;3.78;1.73;;;15.50;99.90;;;;;;4973491;28;20022;-80
2022/09/04 03:10:49;;;;;;;4.30;1.95;;;15.50;99.90;;;;;;4973255;28;20046;-79
2022/09/04 03:13:41;;;;;;;4.60;2.10;;;15.50;99.90;;;;;;4978814;28;20123;-78
2022/09/04 03:16:16;;;;;;;4.55;2.20;;;15.50;99.90;;;;;;4975528;28;20058;-79
2022/09/04 03:18:51;;;;;;;2.13;1.90;;;15.50;99.90;;;;;;4990148;28;20034;-77
2022/09/04 03:21:34;;;;;;;3.45;1.80;;;15.40;99.90;;;;;;4991821;28;20023;-77
2022/09/04 03:24:19;;;;;;;2.42;1.80;;;15.40;99.90;;;;;;4971054;28;20097;-78
2022/09/04 03:26:52;;;;;;;3.33;2.17;;;15.40;99.90;;;;;;4975883;28;20388;-79
2022/09/04 03:29:24;;;;;;;4.20;1.83;;;15.40;99.90;;;;;;4977684;28;20110;-78
2022/09/04 03:32:21;;;;;;;3.95;1.80;;;15.40;99.90;;;;;;4977432;28;20064;-77
2022/09/04 03:34:54;;;;;;;3.83;1.75;;;15.40;99.90;;;;;;4971411;28;20526;-78
2022/09/04 03:37:41;;;;;;;5.43;1.85;;;15.30;99.90;;;;;;4973723;28;20305;-79
2022/09/04 03:40:32;;;;;;;2.78;1.85;;;15.20;99.90;;;;;;4976280;28;20027;-79
2022/09/04 03:43:07;;;;;;;5.28;1.85;;;15.20;99.90;;;;;;4977763;28;20058;-77
2022/09/04 03:45:44;;;;;;;3.80;1.90;;;15.20;99.90;;;;;;4975718;28;20027;-77
2022/09/04 03:48:19;;;;;;;4.00;1.88;;;15.10;99.90;;;;;;4977079;28;20037;-77
2022/09/04 03:51:01;;;;;;;5.07;1.83;;;15.10;99.90;;;;;;4991519;28;20054;-77
2022/09/04 03:53:58;;;;;;;5.85;1.90;;;15.20;99.90;;;;;;4979165;28;20534;-78
2022/09/04 03:56:58;;;;;;;4.68;2.03;;;15.10;99.90;;;;;;4989783;28;20030;-77
2022/09/04 03:59:39;;;;;;;3.67;1.70;;;15.10;99.90;;;;;;4976008;28;20026;-78
2022/09/04 04:02:36;;;;;;;2.47;1.75;;;15.10;99.90;;;;;;4977814;28;20510;-77
2022/09/04 04:05:13;;;;;;;4.03;1.80;;;15.10;99.90;;;;;;4975166;28;20023;-77
2022/09/04 04:08:17;;;;;;;3.15;1.55;;;15.00;99.90;;;;;;4979779;28;20046;-78
2022/09/04 04:11:04;;;;;;;4.18;2.03;;;15.00;99.90;;;;;;4991920;28;20041;-81
2022/09/04 04:13:59;;;;;;;2.95;1.70;;;15.00;99.90;;;;;;4976777;28;20030;-81
2022/09/04 04:16:45;;;;;;;4.43;1.73;;;15.00;99.90;;;;;;4974393;28;20003;-79
2022/09/04 04:19:35;;;;;;;2.90;2.10;;;15.00;99.90;;;;;;4973098;28;20030;-78
2022/09/04 04:22:49;;;;;;;3.05;1.85;;;15.00;99.90;;;;;;4988104;28;20022;-79
2022/09/04 04:25:23;;;;;;;2.38;1.70;;;15.00;99.90;;;;;;4970293;28;20519;-80
2022/09/04 04:28:15;;;;;;;3.42;1.48;;;15.00;99.90;;;;;;4978641;28;20077;-78
2022/09/04 04:30:53;;;;;;;4.60;1.55;;;15.00;99.90;;;;;;4991812;28;20053;-78
2022/09/04 04:33:51;;;;;;;2.58;1.52;;;14.90;99.90;;;;;;4991271;28;20533;-80
2022/09/04 04:36:49;;;;;;;4.40;2.17;;;14.90;99.90;;;;;;4971167;28;20039;-76
2022/09/04 04:39:49;;;;;;;4.07;1.77;;;14.90;99.90;;;;;;4968234;28;20496;-77
2022/09/04 04:42:23;;;;;;;3.75;1.95;;;14.90;99.90;;;;;;4973026;28;20027;-77
2022/09/04 04:48:10;;;;;;;4.93;2.28;;;14.80;99.90;;;;;;4965497;28;20451;-76
2022/09/04 04:51:11;;;;;;;3.13;1.60;;;14.80;99.90;;;;;;4973705;28;20118;-77
2022/09/04 04:53:44;;;;;;;6.38;2.78;;;14.80;99.90;;;;;;4992511;28;20031;-78
2022/09/04 04:56:33;;;;;;;10.93;3.10;;;14.80;99.90;;;;;;4972823;28;20034;-77
2022/09/04 04:59:22;;;;;;;6.22;2.70;;;14.80;99.90;;;;;;4989561;28;20027;-77
2022/09/04 05:02:15;;;;;;;4.13;3.38;;;14.80;99.90;;;;;;4972055;28;20282;-77
2022/09/04 05:05:12;;;;;;;6.17;2.50;;;14.70;99.90;;;;;;4972261;28;20074;-76
2022/09/04 05:08:22;;;;;;;3.25;1.60;;;14.70;99.90;;;;;;4971706;28;20034;-76
2022/09/04 05:10:57;;;;;;;3.03;1.58;;;14.80;99.90;;;;;;4960564;28;20089;-78
2022/09/04 05:13:40;;;;;;;5.95;1.52;;;14.80;99.90;;;;;;4985216;23;20050;-85
2022/09/04 05:16:31;;;;;;;6.47;2.33;;;14.80;99.90;;;;;;4949482;28;20118;-85
2022/09/04 05:19:12;;;;;;;2.20;1.50;;;14.80;99.90;;;;;;4950467;28;20042;-85
2022/09/04 05:21:56;;;;;;;2.70;1.58;;;14.80;99.90;;;;;;4948299;28;20043;-85
2022/09/04 05:24:44;;;;;;;2.60;1.63;;;14.90;99.90;;;;;;4952042;28;20031;-86
2022/09/04 05:27:22;;;;;;;5.30;2.63;;;15.00;99.90;;;;;;4948856;28;20461;-90
2022/09/04 05:29:57;;;;;;;6.07;3.05;;;15.00;99.90;;;;;;4949331;28;20534;-89
2022/09/04 05:32:54;;;;;;;4.10;2.50;;;15.10;99.90;;;;;;4948271;28;20063;-87
2022/09/04 05:35:37;;;;;;;5.57;2.90;;;15.20;99.90;;;;;;4931068;29;20122;-84
2022/09/04 05:38:18;;;;;;;4.68;2.80;;;15.30;99.90;;;;;;4939141;29;20118;-83
2022/09/04 05:41:18;;;;;;;6.40;2.15;;;15.40;99.90;;;;;;4949817;28;20067;-81
2022/09/04 05:44:02;;;;;;;4.18;2.42;;;15.50;99.90;;;;;;4951760;28;20030;-79
2022/09/04 05:46:51;;;;;;;;;;;15.60;99.90;;;;;;4950651;28;20163;-78
2022/09/04 05:49:34;;;;;;;3.30;2.72;;;15.60;99.90;;;;;;4918573;28;19918;-78
2022/09/04 05:52:06;;;;;;;3.65;2.30;;;15.70;99.90;;;;;;4945147;28;20023;-82
2022/09/04 05:54:34;;;;;;;3.08;2.10;;;15.80;99.90;;;;;;4937880;28;20616;-81
2022/09/04 05:57:22;;;;;;;3.92;2.20;;;15.80;99.90;;;;;;4927746;28;20109;-79
2022/09/04 05:59:59;;;;;;;4.60;2.10;;;15.90;99.90;;;;;;4929029;28;20023;-78
2022/09/04 06:02:37;;;;;;;5.18;3.00;;;16.00;99.90;;;;;;4910060;28;20035;-78
2022/09/04 06:05:21;;;;;;;8.93;3.53;;;16.10;99.90;;;;;;4928223;28;20579;-79
2022/09/04 06:08:17;;;;;;;6.30;3.17;;;16.10;99.90;;;;;;4944737;28;20070;-78
2022/09/04 06:11:12;;;;;;;6.63;4.20;;;16.20;99.90;;;;;;4947608;28;20038;-85
2022/09/04 06:14:05;;;;;;;6.68;3.70;;;16.20;99.90;;;;;;4952386;28;20043;-85
2022/09/04 06:17:15;;;;;;;4.40;3.00;;;16.30;99.90;;;;;;4953508;28;20115;-85
2022/09/04 06:20:01;;;;;;;8.70;3.65;;;16.40;99.90;;;;;;4931686;28;20503;-84
2022/09/04 06:22:27;;;;;;;4.20;2.80;;;16.40;99.90;;;;;;4944892;28;20268;-83
2022/09/04 06:25:17;;;;;;;8.38;3.22;;;16.40;99.90;;;;;;4942442;28;20039;-85
2022/09/04 06:27:55;;;;;;;4.95;3.08;;;16.50;99.90;;;;;;4951557;28;20035;-87
2022/09/04 06:30:22;;;;;;;4.80;2.70;;;16.50;99.90;;;;;;4940101;28;20027;-84
2022/09/04 06:33:00;;;;;;;3.88;2.83;;;16.50;99.90;;;;;;4949192;28;20031;-86
2022/09/04 06:35:45;;;;;;;4.35;3.17;;;16.60;99.90;;;;;;4946608;28;20023;-82
2022/09/04 06:38:43;;;;;;;6.05;3.13;;;16.60;99.90;;;;;;4945436;28;20098;-84
2022/09/04 06:41:26;;;;;;;5.55;3.25;;;16.60;99.90;;;;;;4948050;28;20055;-84
2022/09/04 06:44:22;;;;;;;4.63;3.10;;;16.70;99.90;;;;;;4945129;28;20027;-85
2022/09/04 06:47:29;;;;;;;8.70;3.60;;;16.70;99.90;;;;;;4948861;28;20043;-83
2022/09/04 06:50:10;;;;;;;5.97;3.83;;;16.70;99.90;;;;;;4947620;28;20035;-85
2022/09/04 06:52:54;;;;;;;6.80;4.00;;;16.80;99.90;;;;;;4947897;28;20036;-85
2022/09/04 06:55:27;;;;;;;8.90;4.18;;;16.80;99.90;;;;;;4954321;28;20031;-83
2022/09/04 06:58:22;;;;;;;9.57;4.55;;;16.80;99.90;;;;;;4964285;28;20031;-83
2022/09/04 07:00:59;;;;;;;5.40;4.20;;;16.90;99.90;;;;;;4951287;28;20059;-83
2022/09/04 07:04:01;;;;;;;4.53;3.58;;;16.90;99.90;;;;;;4963621;28;20026;-84
2022/09/04 07:07:11;;;;;;;7.03;4.13;;;16.90;99.90;;;;;;4922226;28;20042;-85
2022/09/04 07:09:40;;;;;;;7.32;4.13;;;17.00;99.90;;;;;;4957584;28;20046;-85
2022/09/04 07:12:11;;;;;;;5.85;3.63;;;17.10;99.90;;;;;;4932336;28;20881;-84
2022/09/04 07:15:15;;;;;;;5.22;3.45;;;17.10;99.90;;;;;;4950609;28;20050;-84
2022/09/04 07:18:17;;;;;;;8.40;4.07;;;17.20;99.90;;;;;;4950973;28;20224;-83
2022/09/04 07:21:14;;;;;;;14.85;4.13;;;17.20;99.90;;;;;;4949543;28;20131;-84
2022/09/04 07:23:58;;;;;;;6.22;3.78;;;17.30;99.90;;;;;;4943902;28;20074;-84
2022/09/04 07:26:57;;;;;;;6.40;3.45;;;17.40;99.90;;;;;;4949463;28;20042;-84
2022/09/04 07:29:43;;;;;;;6.47;3.97;;;17.40;99.90;;;;;;4969954;28;20039;-84
2022/09/04 07:32:22;;;;;;;5.72;3.17;;;17.50;99.90;;;;;;4972205;28;20075;-83
2022/09/04 07:34:59;;;;;;;5.50;3.20;;;17.60;99.90;;;;;;4971833;28;20110;-86
2022/09/04 07:37:42;;;;;;;6.35;3.72;;;17.60;99.90;;;;;;4954948;28;20027;-85
2022/09/04 07:40:23;;;;;;;12.45;3.22;;;17.70;99.90;;;;;;4956984;28;20016;-85
2022/09/04 07:43:06;;;;;;;6.22;3.08;;;17.70;99.90;;;;;;4974000;28;20042;-88
2022/09/04 07:45:54;;;;;;;4.32;2.75;;;17.80;99.90;;;;;;4976262;28;20106;-87
2022/09/04 07:48:42;;;;;;;5.45;2.85;;;17.90;99.90;;;;;;4971789;28;20096;-89
2022/09/04 07:51:31;;;;;;;5.55;3.25;;;18.00;99.90;;;;;;4963014;28;20082;-87
2022/09/04 07:54:05;;;;;;;4.05;2.92;;;18.00;99.90;;;;;;4945947;29;20027;-89
2022/09/04 07:57:04;;;;;;;4.90;3.40;;;18.10;99.90;;;;;;4961829;28;20043;-94
2022/09/04 07:59:50;;;;;;;5.80;3.22;;;18.20;99.90;;;;;;4958142;28;20488;-94
2022/09/04 08:02:41;;;;;;;5.75;3.83;;;18.30;99.90;;;;;;5071511;23;20105;-77
2022/09/04 08:05:15;;;;;;;5.07;2.55;;;18.30;99.90;;;;;;4975194;28;20030;-76
2022/09/04 08:07:50;;;;;;;3.60;2.75;;;18.40;99.90;;;;;;4986816;28;20323;-75
2022/09/04 08:10:32;;;;;;;8.85;2.80;;;18.50;99.90;;;;;;4969469;28;20050;-76
2022/09/04 08:13:35;;;;;;;4.30;2.95;;;18.50;99.90;;;;;;4970758;28;20035;-76
2022/09/04 08:16:10;;;;;;;7.10;2.78;;;18.60;99.90;;;;;;4974817;28;20035;-77
2022/09/04 08:19:01;;;;;;;6.85;2.78;;;18.70;99.90;;;;;;4968360;28;20026;-77
2022/09/04 08:21:42;;;;;;;3.95;2.15;;;18.80;99.90;;;;;;4981659;28;20034;-78
2022/09/04 08:24:32;;;;;;;4.68;3.25;;;18.90;99.90;;;;;;4984371;28;20535;-78
2022/09/04 08:27:30;;;;;;;3.47;2.35;;;18.90;99.90;;;;;;4982610;28;20169;-78
2022/09/04 08:30:06;;;;;;;3.50;2.05;;;19.00;99.90;;;;;;4987272;28;20097;-78
2022/09/04 08:32:53;;;;;;;5.97;2.45;;;19.10;99.90;;;;;;4995929;28;20023;-78
2022/09/04 08:35:22;;;;;;;4.82;2.35;;;19.20;99.90;;;;;;4982742;28;20491;-78
2022/09/04 08:38:23;;;;;;;3.17;2.38;;;19.30;99.90;;;;;;4982732;28;20029;-78
2022/09/04 08:41:20;;;;;;;5.82;3.25;;;19.40;99.90;;;;;;4984288;28;20546;-80
2022/09/04 08:44:12;;;;;;;3.70;2.67;;;19.50;99.90;;;;;;4998864;28;20022;-81
2022/09/04 08:46:57;;;;;;;3.70;2.05;;;19.60;99.90;;;;;;4991452;28;20031;-81
2022/09/04 08:50:00;;;;;;;3.78;1.67;;;19.60;99.90;;;;;;4985308;28;20142;-80
2022/09/04 08:52:38;;;;;;;3.35;1.67;;;19.70;99.90;;;;;;4978433;28;20027;-82
2022/09/04 08:55:04;;;;;;;1.73;1.33;;;19.80;99.90;;;;;;4977560;28;20400;-81
2022/09/04 08:57:51;;;;;;;3.38;1.40;;;19.80;99.90;;;;;;4984438;28;20486;-80
2022/09/04 09:00:25;;;;;;;1.63;1.30;;;19.90;99.90;;;;;;4982660;28;20035;-79
2022/09/04 09:03:09;;;;;;;3.30;1.42;;;20.00;99.90;;;;;;4983599;28;20046;-78
2022/09/04 09:06:12;;;;;;;1.92;1.33;;;20.00;99.90;;;;;;4980468;28;20026;-80
2022/09/04 09:09:00;;;;;;;2.30;1.38;;;20.10;99.90;;;;;;4984038;28;20031;-79
2022/09/04 09:11:51;;;;;;;2.58;0.90;;;20.20;99.90;;;;;;4984749;28;20022;-78
2022/09/04 09:15:02;;;;;;;5.38;1.35;;;20.30;99.90;;;;;;4983570;28;20029;-78
2022/09/04 09:17:58;;;;;;;3.25;1.45;;;20.30;99.90;;;;;;4965341;28;20422;-80
2022/09/04 09:20:29;;;;;;;2.47;1.35;;;20.40;99.90;;;;;;4995343;28;20030;-77
2022/09/04 09:23:19;;;;;;;2.85;1.20;;;20.40;99.90;;;;;;4978382;28;20023;-77
2022/09/04 09:26:05;;;;;;;2.03;1.30;;;20.40;99.90;;;;;;4976419;28;20031;-78
2022/09/04 09:28:45;;;;;;;2.30;1.30;;;20.50;99.90;;;;;;4984755;28;20033;-79
2022/09/04 09:31:16;;;;;;;2.08;1.00;;;20.60;99.90;;;;;;4982758;28;20030;-78
2022/09/04 09:34:17;;;;;;;2.25;1.48;;;20.70;99.90;;;;;;4979419;28;20116;-75
2022/09/04 09:37:12;;;;;;;2.40;1.00;;;20.80;99.90;;;;;;4978690;28;20424;-76
2022/09/04 09:39:59;;;;;;;2.95;1.30;;;20.80;99.90;;;;;;4968736;28;20038;-75
2022/09/04 09:43:08;;;;;;;1.52;1.00;;;20.90;99.90;;;;;;4990638;28;20443;-78
2022/09/04 09:46:01;;;;;;;1.83;1.52;;;21.00;99.90;;;;;;4957726;28;20448;-76
2022/09/04 09:48:48;;;;;;;1.60;1.10;;;21.10;99.90;;;;;;4986376;28;20477;-75
2022/09/04 09:51:22;;;;;;;1.45;0.98;;;21.10;99.90;;;;;;4991243;28;20113;-76
2022/09/04 09:54:03;;;;;;;2.38;1.10;;;21.10;99.90;;;;;;4968687;28;20042;-76
2022/09/04 09:57:00;;;;;;;2.60;1.05;;;21.20;99.90;;;;;;4972854;28;20031;-76
2022/09/04 10:00:04;;;;;;;1.83;1.20;;;21.30;99.90;;;;;;4990103;28;20026;-76
2022/09/04 10:02:51;;;;;;;1.50;1.20;;;21.40;99.90;;;;;;4974191;28;20031;-76
2022/09/04 10:05:36;;;;;;;3.17;1.25;;;21.50;99.90;;;;;;4973065;28;20031;-76
2022/09/04 10:08:09;;;;;;;2.33;1.25;;;21.50;99.90;;;;;;4982717;28;20066;-70
2022/09/04 10:11:25;;;;;;;1.08;0.70;;;21.60;99.90;;;;;;4970050;28;20141;-76
2022/09/04 10:13:50;;;;;;;1.15;1.00;;;21.70;99.90;;;;;;4969183;28;20492;-75
2022/09/04 10:16:19;;;;;;;4.00;1.40;;;21.80;99.90;;;;;;4962330;28;20029;-76
2022/09/04 10:18:47;;;;;;;1.38;1.08;;;21.80;99.90;;;;;;4964382;28;20023;-76
2022/09/04 10:21:28;;;;;;;2.10;1.15;;;21.90;99.90;;;;;;4970173;28;20156;-76
2022/09/04 10:24:18;;;;;;;1.60;1.33;;;21.90;99.90;;;;;;4964541;28;20110;-75
2022/09/04 10:27:13;;;;;;;1.55;0.88;;;22.00;99.90;;;;;;4969265;28;20061;-77
2022/09/04 10:29:43;;;;;;;2.85;1.00;;;22.00;99.90;;;;;;4961234;28;20033;-76
2022/09/04 10:32:34;;;;;;;4.25;1.30;;;22.10;99.90;;;;;;4974502;28;20065;-76
2022/09/04 10:35:24;;;;;;;3.17;1.10;;;22.20;99.90;;;;;;4954100;28;20031;-75
2022/09/04 10:37:55;;;;;;;1.80;1.10;;;22.20;99.90;;;;;;4963673;28;20023;-74
2022/09/04 10:40:43;;;;;;;3.40;1.60;;;22.20;99.90;;;;;;4973958;28;20077;-76
2022/09/04 10:43:14;;;;;;;1.88;1.10;;;22.20;99.90;;;;;;4985117;28;20041;-75
2022/09/04 10:46:09;;;;;;;1.98;1.10;;;22.40;99.90;;;;;;4968447;28;20046;-72
2022/09/04 10:49:00;;;;;;;1.58;1.10;;;22.40;99.90;;;;;;4970023;28;20476;-72
2022/09/04 10:51:48;;;;;;;0.88;0.80;;;22.40;99.90;;;;;;4972866;28;20034;-72
2022/09/04 10:54:31;;;;;;;2.58;0.90;;;22.40;99.90;;;;;;4972823;28;20488;-72
2022/09/04 10:57:45;;;;;;;2.03;0.98;;;22.40;99.90;;;;;;4974626;28;20105;-73
2022/09/04 11:00:17;;;;;;;1.75;0.90;;;22.40;99.00;;;;;;4971359;28;20035;-82
2022/09/04 11:03:23;;;;;;;2.08;0.75;;;22.40;99.30;;;;;;4975083;28;20026;-77
2022/09/04 11:06:09;;;;;;;1.23;0.80;;;22.40;99.40;;;;;;4974986;28;20046;-79
2022/09/04 11:08:50;;;;;;;1.30;0.70;;;22.40;99.20;;;;;;4971324;28;20023;-77
2022/09/04 11:11:18;;;;;;;1.73;1.23;;;22.40;97.80;;;;;;4972882;28;20093;-78
2022/09/04 11:13:59;;;;;;;1.70;1.05;;;22.50;98.00;;;;;;4975559;28;20733;-77
2022/09/04 11:17:02;;;;;;;2.45;1.20;;;22.50;97.30;;;;;;4989126;28;20025;-81
2022/09/04 11:19:47;;;;;;;1.45;0.88;;;22.60;96.70;;;;;;4979772;28;20117;-78
2022/09/04 11:22:21;;;;;;;3.28;1.50;;;22.60;95.70;;;;;;4976197;28;20025;-78
2022/09/04 11:25:11;;;;;;;1.30;0.88;;;22.60;95.70;;;;;;4973828;28;20034;-76
2022/09/04 11:28:03;;;;;;;1.50;1.20;;;22.70;95.60;;;;;;4975190;28;20049;-76
2022/09/04 11:30:47;;;;;;;1.75;1.02;;;22.70;95.90;;;;;;4988617;28;20054;-76
2022/09/04 11:33:43;;;;;;;2.95;1.42;;;22.80;95.80;;;;;;4975338;28;20034;-77
2022/09/04 11:36:45;;;;;;;1.67;0.80;;;22.80;95.80;;;;;;4973449;28;20054;-76
2022/09/04 11:39:30;;;;;;;1.45;1.20;;;22.80;96.00;;;;;;4977376;28;20029;-75
2022/09/04 11:41:56;;;;;;;2.42;1.33;;;22.90;95.80;;;;;;4979137;28;20451;-77
2022/09/04 11:44:24;;;;;;;3.13;0.95;;;22.90;95.20;;;;;;4975071;28;20483;-77
2022/09/04 11:47:35;;;;;;;1.13;0.90;;;23.00;94.60;;;;;;4976393;28;20031;-79
2022/09/04 11:50:23;;;;;;;1.92;1.20;;;23.00;94.20;;;;;;4969514;28;20357;-76
2022/09/04 11:52:58;;;;;;;2.25;1.25;;;23.10;94.20;;;;;;4968549;28;20030;-78
2022/09/04 11:55:38;;;;;;;2.05;1.50;;;23.10;94.50;;;;;;4972054;28;20125;-78
2022/09/04 11:58:35;;;;;;;2.47;1.33;;;23.20;94.20;;;;;;4976343;28;20027;-78
2022/09/04 12:01:25;;;;;;;2.00;1.38;;;23.20;94.20;;;;;;4979755;28;20113;-79
2022/09/04 12:04:28;;;;;;;3.03;1.58;;;23.20;93.80;;;;;;4994014;28;20038;-77
2022/09/04 12:06:53;;;;;;;2.70;1.40;;;23.20;93.50;;;;;;4985537;28;20023;-77
2022/09/04 12:09:31;;;;;;;2.25;1.40;;;23.20;93.60;;;;;;4974274;28;20058;-76
2022/09/04 12:12:21;;;;;;;2.55;1.25;;;23.20;93.60;;;;;;4973259;28;20400;-79
2022/09/04 12:15:11;;;;;;;2.65;1.52;;;23.20;93.40;;;;;;4973636;28;20030;-75
2022/09/04 12:17:55;;;;;;;1.63;1.27;;;23.30;92.60;;;;;;4981570;28;20027;-76
2022/09/04 12:20:35;;;;;;;2.22;1.10;;;23.30;92.60;;;;;;4990083;28;20034;-76
2022/09/04 12:23:32;;;;;;;2.53;1.15;;;23.40;92.00;;;;;;4971554;28;20019;-76
2022/09/04 12:26:16;;;;;;;1.88;1.25;;;23.40;92.10;;;;;;4976792;28;20535;-77
2022/09/04 12:29:07;;;;;;;2.80;1.10;;;23.40;92.00;;;;;;4973021;28;20491;-77
2022/09/04 12:31:42;;;;;;;3.13;0.98;;;23.30;91.50;;;;;;4974963;28;20026;-78
2022/09/04 12:34:26;;;;;;;1.42;0.90;;;23.30;91.60;;;;;;4978732;28;20158;-76
2022/09/04 12:37:02;;;;;;;2.08;1.02;;;23.30;92.00;;;;;;4993034;28;20031;-76
2022/09/04 12:39:49;;;;;;;1.52;1.17;;;23.20;92.00;;;;;;4981782;28;20042;-77
2022/09/04 12:42:49;;;;;;;1.55;0.80;;;23.30;91.80;;;;;;4977599;28;20547;-76
2022/09/04 12:45:26;;;;;;;2.67;1.17;;;23.40;90.10;;;;;;4978731;28;20030;-77
2022/09/04 12:48:26;;;;;;;1.05;0.80;;;23.40;90.20;;;;;;4980048;28;20054;-76
2022/09/04 12:51:02;;;;;;;2.88;1.00;;;23.40;89.90;;;;;;4976458;28;20023;-76
2022/09/04 12:53:58;;;;;;;6.53;1.35;;;23.40;90.40;;;;;;4969832;28;20488;-76
2022/09/04 12:56:51;;;;;;;1.73;0.90;;;23.50;90.30;;;;;;4976954;28;20390;-76
2022/09/04 12:59:34;;;;;;;1.80;1.33;;;23.50;90.10;;;;;;4974681;28;20019;-77
2022/09/04 13:02:07;;;;;;;2.40;1.20;;;23.50;90.00;;;;;;4980624;28;20030;-75
2022/09/04 13:04:32;;;;;;;4.05;1.33;;;23.50;90.00;;;;;;4975186;28;20042;-78
2022/09/04 13:07:07;;;;;;;2.25;1.23;;;23.60;90.30;;;;;;4979030;28;20034;-74
2022/09/04 13:09:53;;;;;;;3.47;1.73;;;23.60;90.10;;;;;;4974528;28;20037;-75
2022/09/04 13:12:37;;;;;;;1.95;1.27;;;23.70;90.20;;;;;;4971707;28;20022;-73
2022/09/04 13:15:07;;;;;;;1.23;1.10;;;23.70;90.30;;;;;;4977098;28;20058;-73
2022/09/04 13:17:42;;;;;;;3.03;1.23;;;23.80;90.10;;;;;;4973931;28;20027;-74
2022/09/04 13:20:22;;;;;;;3.78;1.52;;;23.80;90.00;;;;;;4975312;28;20046;-73
2022/09/04 13:23:12;;;;;;;1.60;1.08;;;23.80;88.90;;;;;;4970870;28;20531;-73
2022/09/04 13:26:07;;;;;;;2.72;1.27;;;23.90;87.90;;;;;;4974141;28;20082;-78
2022/09/04 13:28:43;;;;;;;3.47;1.40;;;23.90;88.40;;;;;;4975057;28;20115;-76
2022/09/04 13:31:12;;;;;;;2.33;1.50;;;23.90;87.10;;;;;;4982187;28;20034;-75
2022/09/04 13:33:52;;;;;;;2.47;1.20;;;24.00;86.90;;;;;;4976513;28;20030;-77
2022/09/04 13:36:38;;;;;;;2.40;1.10;;;24.00;86.50;;;;;;4977675;28;20018;-77
2022/09/04 13:39:41;;;;;;;1.60;1.10;;;24.10;86.00;;;;;;4972657;28;20034;-77
2022/09/04 13:45:46;;;;;;;3.67;1.20;;;24.10;85.40;;;;;;4978538;28;20480;-76
2022/09/04 14:05:21;;;;;;;2.10;1.30;;;24.30;86.30;;;;;;4972964;28;20435;-73
2022/09/04 14:07:57;;;;;;;2.30;1.55;;;24.30;87.00;;;;;;4971424;28;20045;-74
2022/09/04 14:10:45;;;;;;;1.95;1.08;;;24.30;86.60;;;;;;4967372;28;20059;-74
2022/09/04 14:13:27;;;;;;;2.70;1.20;;;24.30;87.20;;;;;;4977132;28;20061;-74
2022/09/04 14:15:56;;;;;;;2.95;1.30;;;24.20;87.10;;;;;;4977630;28;20460;-75
2022/09/04 14:18:22;;;;;;;3.55;1.48;;;24.20;87.20;;;;;;4976782;28;20023;-75
2022/09/04 14:20:56;;;;;;;1.80;1.13;;;24.20;86.20;;;;;;4973495;28;20054;-73
2022/09/04 14:23:55;;;;;;;2.80;1.15;;;24.20;86.00;;;;;;4974921;28;20038;-77
2022/09/04 14:26:32;;;;;;;3.90;1.50;;;24.30;85.70;;;;;;4977436;28;20099;-76
2022/09/04 14:29:31;;;;;;;3.30;1.02;;;24.30;85.20;;;;;;4974335;28;20105;-76
2022/09/04 14:32:09;;;;;;;1.42;0.90;;;24.30;85.20;;;;;;4977096;28;20027;-72
2022/09/04 14:35:01;;;;;;;1.40;0.80;;;24.30;84.10;;;;;;4977177;28;20030;-72
2022/09/04 14:37:47;;;;;;;1.50;1.08;;;24.30;84.50;;;;;;4973121;28;20022;-72
2022/09/04 14:40:13;;;;;;;1.50;1.00;;;24.30;84.50;;;;;;4975506;28;20074;-71
2022/09/04 14:43:03;;;;;;;3.47;1.27;;;24.30;84.40;;;;;;4977635;28;20034;-72